FW7914 Weather Reports


Display with metric or nautical units.
time (UTC)temp
F
wind
direction
speed
MPH
gust
MPH
rain 1hr
in
rain 24hr
in
rain mn
in
humidity
%
barometer
mb
20240523184521 88 182 0.0 5.0 0.00 0.00 0.00 68 1016.3
20240523183017 87 185 0.0 4.0 0.00 0.00 0.00 64 1016.4
20240523181516 85 144 1.0 7.0 0.00 0.00 0.00 64 1016.4
20240523180013 87 360 1.0 5.0 0.00 0.00 0.00 67 1016.8
20240523174511 86 355 0.0 3.0 0.00 0.00 0.00 64 1017.0
20240523173011 84 355 0.0 2.0 0.00 0.00 0.00 70 1017.3
20240523171516 83 350 0.0 3.0 0.00 0.00 0.00 72 1017.3
20240523170008 85 190 1.0 5.0 0.00 0.00 0.00 65 1017.4
20240523164506 85 290 0.0 3.0 0.00 0.00 0.00 71 1017.5
20240523163004 84 188 1.0 5.0 0.00 0.00 0.00 73 1017.7
20240523161502 83 171 1.0 5.0 0.00 0.00 0.00 73 1017.9
20240523160100 84 269 2.0 8.0 0.00 0.00 0.00 70 1017.9
20240523154633 84 180 2.0 6.0 0.00 0.00 0.00 74 1017.9
20240523153054 83 178 2.0 7.0 0.00 0.00 0.00 72 1018.0
20240523151556 82 202 3.0 7.0 0.00 0.00 0.00 73 1018.0
20240523150050 82 207 0.0 6.0 0.00 0.00 0.00 74 1018.1
20240523144601 81 225 1.0 7.0 0.00 0.00 0.00 75 1018.1
20240523143041 80 34 2.0 9.0 0.00 0.00 0.00 75 1018.2
20240523141543 80 185 1.0 7.0 0.00 0.00 0.00 79 1018.2
20240523140036 79 267 1.0 7.0 0.00 0.00 0.00 78 1018.2
20240523134538 78 255 0.0 8.0 0.00 0.00 0.00 80 1018.4
20240523133029 77 142 1.0 8.0 0.00 0.00 0.00 81 1018.7
20240523131521 76 178 2.0 6.0 0.00 0.00 0.00 82 1018.7
20240523130016 75 71 1.0 4.0 0.00 0.00 0.00 84 1018.8
20240523124513 74 255 0.0 5.0 0.00 0.00 0.00 88 1018.7
20240523123009 72 142 0.0 4.0 0.00 0.00 0.00 89 1018.6
20240523121504 71 284 0.0 4.0 0.00 0.00 0.00 93 1018.4
20240523120100 70 182 0.0 3.0 0.00 0.00 0.00 95 1018.6
20240523114556 69 296 1.0 3.0 0.00 0.00 0.00 96 1018.7
20240523113101 67 319 0.0 2.0 0.00 0.00 0.00 96 1018.6
20240523111551 67 344 0.0 0.0 0.00 0.00 0.00 96 1018.6
20240523110059 66 82 0.0 0.0 0.00 0.00 0.00 96 1018.2
20240523104544 65 157 0.0 0.0 0.00 0.00 0.00 95 1018.2
20240523103053 64 157 0.0 1.0 0.00 0.00 0.00 95 1017.8
20240523101543 65 174 0.0 0.0 0.00 0.00 0.00 95 1017.3
20240523100041 65 174 0.0 0.0 0.00 0.00 0.00 95 1017.4
20240523094537 66 174 0.0 1.0 0.00 0.00 0.00 94 1017.4
20240523093048 66 174 0.0 0.0 0.00 0.00 0.00 94 1017.2
20240523091534 67 174 0.0 1.0 0.00 0.00 0.00 94 1017.1
20240523090036 67 174 0.0 0.0 0.00 0.00 0.00 93 1017.1
20240523084530 67 173 2.0 4.0 0.00 0.00 0.00 93 1016.9
20240523083044 67 161 1.0 5.0 0.00 0.00 0.00 93 1017.1
20240523081528 67 199 0.0 5.0 0.00 0.00 0.00 93 1017.2
20240523080025 67 180 3.0 8.0 0.00 0.00 0.00 93 1017.3
20240523074525 67 184 1.0 4.0 0.00 0.00 0.00 93 1017.5
20240523073023 67 182 0.0 3.0 0.00 0.00 0.00 92 1017.3
20240523071536 67 180 0.0 2.0 0.00 0.00 0.00 92 1017.6
20240523070021 67 179 0.0 2.0 0.00 0.00 0.00 91 1017.8
20240523064520 66 179 0.0 3.0 0.00 0.00 0.00 90 1017.9
20240523063020 66 174 0.0 0.0 0.00 0.00 0.00 90 1017.7
20240523061519 67 174 0.0 0.0 0.00 0.00 0.00 89 1018.0
20240523060019 67 173 1.0 3.0 0.00 0.00 0.00 88 1017.4
20240523054518 67 175 2.0 6.0 0.00 0.00 0.00 88 1017.6
20240523053037 67 155 1.0 3.0 0.00 0.00 0.00 88 1017.8
20240523051512 67 153 0.0 2.0 0.00 0.00 0.00 88 1018.1
20240523050010 67 153 0.0 2.0 0.00 0.00 0.00 87 1018.3
20240523044529 67 153 0.0 2.0 0.00 0.00 0.00 87 1018.4
20240523043007 67 153 0.0 0.0 0.00 0.00 0.00 86 1018.4
20240523041511 67 153 0.0 0.0 0.00 0.00 0.00 87 1018.7
20240523040004 67 153 0.0 2.0 0.00 0.00 0.00 87 1018.5
20240523034506 67 153 0.0 0.0 0.00 0.00 0.00 87 1018.6
20240523033003 68 153 0.0 0.0 0.00 0.00 0.00 85 1018.5
20240523031503 69 153 0.0 0.0 0.00 0.00 0.00 84 1018.4
20240523030001 69 153 0.0 0.0 0.00 0.00 0.00 84 1018.4
20240523024502 69 153 0.0 0.0 0.00 0.00 0.00 83 1018.3
20240523023003 70 153 0.0 0.0 0.00 0.00 0.00 82 1018.3
20240523021501 71 153 0.0 0.0 0.00 0.00 0.00 80 1017.9
20240523020103 72 153 0.0 0.0 0.00 0.00 0.00 78 1017.6
20240523014559 73 153 0.0 5.0 0.00 0.00 0.00 77 1017.5
20240523013059 74 157 0.0 5.0 0.00 0.00 0.00 76 1017.4
20240523011607 74 156 0.0 2.0 0.00 0.00 0.00 75 1017.3
20240523010102 75 156 1.0 3.0 0.00 0.00 0.00 74 1017.1
20240523004557 76 156 2.0 6.0 0.00 0.00 0.00 72 1017.2
20240523003057 77 178 0.0 5.0 0.00 0.00 0.00 71 1016.9
20240523001557 78 172 2.0 5.0 0.00 0.00 0.00 69 1016.9
20240523000057 79 152 1.0 7.0 0.00 0.00 0.00 67 1016.9
20240522234600 80 145 1.0 3.0 0.00 0.00 0.00 65 1016.7
20240522233055 81 145 0.0 3.0 0.00 0.00 0.00 60 1016.6
20240522231555 82 280 3.0 6.0 0.00 0.00 0.00 59 1016.8
20240522230059 83 138 0.0 5.0 0.00 0.00 0.00 57 1016.6
20240522224554 83 267 0.0 7.0 0.00 0.00 0.00 54 1016.8
20240522223053 84 211 0.0 2.0 0.00 0.00 0.00 52 1016.8
20240522221557 84 207 1.0 6.0 0.00 0.00 0.00 52 1016.7
20240522220059 85 198 0.0 3.0 0.00 0.00 0.00 53 1016.7
20240522214557 85 176 2.0 6.0 0.00 0.00 0.00 51 1016.6
20240522213052 85 180 3.0 5.0 0.00 0.00 0.00 50 1016.6
20240522211552 85 257 0.0 3.0 0.00 0.00 0.00 53 1016.6
20240522210050 85 213 3.0 6.0 0.00 0.00 0.00 50 1016.6
20240522204553 85 107 0.0 9.0 0.00 0.00 0.00 52 1016.8
20240522203055 85 135 2.0 7.0 0.00 0.00 0.00 53 1016.6
20240522201553 84 188 2.0 10.0 0.00 0.00 0.00 53 1016.6
20240522200045 84 186 3.0 9.0 0.00 0.00 0.00 55 1017.1
20240522194546 84 211 2.0 6.0 0.00 0.00 0.00 53 1017.2
20240522193053 84 136 3.0 9.0 0.00 0.00 0.00 56 1017.6
20240522191540 84 165 3.0 7.0 0.00 0.00 0.00 55 1017.7
20240522190041 84 118 1.0 6.0 0.00 0.00 0.00 56 1018.0